createdAt,value
2018-02-14T00:00:45.205Z,1036.9
2018-02-14T00:01:45.184Z,1036.92
2018-02-14T00:02:45.174Z,1036.9
2018-02-14T00:03:45.149Z,1036.89
2018-02-14T00:04:45.131Z,1036.87
2018-02-14T00:05:45.119Z,1036.91
2018-02-14T00:06:45.094Z,1036.89
2018-02-14T00:07:45.077Z,1036.96
2018-02-14T00:08:45.059Z,1036.93
2018-02-14T00:09:45.039Z,1036.92
2018-02-14T00:10:45.022Z,1036.95
2018-02-14T00:11:45.006Z,1036.95
2018-02-14T00:12:44.985Z,1036.96
2018-02-14T00:13:44.968Z,1036.95
2018-02-14T00:14:44.950Z,1036.93
2018-02-14T00:15:44.933Z,1036.95
2018-02-14T00:16:44.914Z,1036.97
2018-02-14T00:17:44.896Z,1036.99
2018-02-14T00:18:44.877Z,1036.95
2018-02-14T00:19:44.860Z,1036.95
2018-02-14T00:20:44.846Z,1036.95
2018-02-14T00:21:44.825Z,1036.96
2018-02-14T00:22:44.805Z,1036.97
2018-02-14T00:23:44.786Z,1036.98
2018-02-14T00:24:44.768Z,1036.97
2018-02-14T00:25:44.758Z,1037.02
2018-02-14T00:26:44.733Z,1037.02
2018-02-14T00:27:44.714Z,1037.05
2018-02-14T00:28:44.696Z,1037.08
2018-02-14T00:29:44.679Z,1037.05
2018-02-14T00:30:44.659Z,1037.05
2018-02-14T00:31:44.641Z,1037.09
2018-02-14T00:32:44.623Z,1037.08
2018-02-14T00:33:44.611Z,1037.11
2018-02-14T00:34:44.587Z,1037.08
2018-02-14T00:35:44.569Z,1037.12
2018-02-14T00:36:44.553Z,1037.14
2018-02-14T00:37:44.533Z,1037.14
2018-02-14T00:38:44.513Z,1037.19
2018-02-14T00:39:44.498Z,1037.2
2018-02-14T00:40:44.482Z,1037.25
2018-02-14T00:41:44.460Z,1037.24
2018-02-14T00:42:44.442Z,1037.23
2018-02-14T00:43:44.424Z,1037.22
2018-02-14T00:44:44.406Z,1037.2
2018-02-14T00:45:44.386Z,1037.27
2018-02-14T00:46:44.369Z,1037.26
2018-02-14T00:47:44.351Z,1037.29
2018-02-14T00:48:44.338Z,1037.27
2018-02-14T00:49:44.315Z,1037.31
2018-02-14T00:50:44.295Z,1037.25
2018-02-14T00:51:44.278Z,1037.29
2018-02-14T00:52:44.260Z,1037.29
2018-02-14T00:53:44.240Z,1037.35
2018-02-14T00:54:44.223Z,1037.38
2018-02-14T00:55:44.207Z,1037.37
2018-02-14T00:56:44.186Z,1037.4
2018-02-14T00:57:44.168Z,1037.41
2018-02-14T00:58:44.150Z,1037.41
2018-02-14T00:59:44.131Z,1037.44
2018-02-14T01:00:44.113Z,1037.48
2018-02-14T01:01:44.099Z,1037.48
2018-02-14T01:02:44.077Z,1037.5
2018-02-14T01:03:44.060Z,1037.53
2018-02-14T01:04:44.040Z,1037.51
2018-02-14T01:05:44.024Z,1037.55
2018-02-14T01:06:44.004Z,1037.6
2018-02-14T01:07:43.986Z,1037.58
2018-02-14T01:08:43.968Z,1037.61
2018-02-14T01:09:43.949Z,1037.59
2018-02-14T01:10:43.932Z,1037.61
2018-02-14T01:11:43.912Z,1037.65
2018-02-14T01:12:43.894Z,1037.63
2018-02-14T01:13:43.876Z,1037.68
2018-02-14T01:14:43.858Z,1037.68
2018-02-14T01:15:43.840Z,1037.67
2018-02-14T01:16:43.821Z,1037.67
2018-02-14T01:17:43.802Z,1037.65
2018-02-14T01:18:43.784Z,1037.67
2018-02-14T01:19:43.766Z,1037.65
2018-02-14T01:20:43.748Z,1037.65
2018-02-14T01:21:43.730Z,1037.65
2018-02-14T01:22:43.711Z,1037.67
2018-02-14T01:23:43.692Z,1037.65
2018-02-14T01:24:43.675Z,1037.71
2018-02-14T01:25:43.656Z,1037.72
2018-02-14T01:26:43.638Z,1037.72
2018-02-14T01:27:43.619Z,1037.72
2018-02-14T01:28:43.600Z,1037.68
2018-02-14T01:29:43.584Z,1037.68
2018-02-14T01:30:43.565Z,1037.76
2018-02-14T01:31:43.546Z,1037.72
2018-02-14T01:32:43.527Z,1037.73
2018-02-14T01:33:43.508Z,1037.75
2018-02-14T01:34:43.490Z,1037.71
2018-02-14T01:35:43.472Z,1037.73
2018-02-14T01:36:43.455Z,1037.75
2018-02-14T01:37:43.435Z,1037.74
2018-02-14T01:38:43.419Z,1037.79
2018-02-14T01:39:43.400Z,1037.75
2018-02-14T01:40:43.380Z,1037.77
2018-02-14T01:41:43.362Z,1037.81
2018-02-14T01:42:43.344Z,1037.78
2018-02-14T01:43:43.326Z,1037.76
2018-02-14T01:44:43.307Z,1037.79
2018-02-14T01:45:43.290Z,1037.76
2018-02-14T01:46:43.271Z,1037.79
2018-02-14T01:47:43.252Z,1037.76
2018-02-14T01:48:43.234Z,1037.74
2018-02-14T01:49:43.216Z,1037.75
2018-02-14T01:50:43.196Z,1037.75
2018-02-14T01:51:43.178Z,1037.79
2018-02-14T01:52:43.160Z,1037.78
2018-02-14T01:53:43.142Z,1037.82
2018-02-14T01:54:43.125Z,1037.79
2018-02-14T01:55:43.103Z,1037.79
2018-02-14T01:56:43.087Z,1037.78
2018-02-14T01:57:43.068Z,1037.75
2018-02-14T01:58:43.049Z,1037.74
2018-02-14T01:59:43.030Z,1037.78
2018-02-14T02:00:43.012Z,1037.79
2018-02-14T02:01:43.003Z,1037.78
2018-02-14T02:02:42.975Z,1037.79
2018-02-14T02:03:42.957Z,1037.76
2018-02-14T02:04:42.939Z,1037.77
2018-02-14T02:05:42.920Z,1037.78
2018-02-14T02:06:42.902Z,1037.8
2018-02-14T02:07:42.883Z,1037.77
2018-02-14T02:08:42.890Z,1037.77
2018-02-14T02:09:42.845Z,1037.76
2018-02-14T02:10:42.827Z,1037.76
2018-02-14T02:11:42.809Z,1037.74
2018-02-14T02:12:42.791Z,1037.77
2018-02-14T02:13:42.772Z,1037.78
2018-02-14T02:14:42.756Z,1037.77
2018-02-14T02:15:42.736Z,1037.8
2018-02-14T02:16:42.719Z,1037.79
2018-02-14T02:17:42.699Z,1037.82
2018-02-14T02:18:42.680Z,1037.83
2018-02-14T02:19:42.662Z,1037.82
2018-02-14T02:20:42.650Z,1037.86
2018-02-14T02:21:42.624Z,1037.85
2018-02-14T02:22:42.606Z,1037.83
2018-02-14T02:23:42.588Z,1037.83
2018-02-14T02:24:42.571Z,1037.83
2018-02-14T02:25:42.551Z,1037.85
2018-02-14T02:26:42.532Z,1037.83
2018-02-14T02:27:42.514Z,1037.86
2018-02-14T02:28:42.494Z,1037.81
2018-02-14T02:29:42.476Z,1037.83
2018-02-14T02:30:42.458Z,1037.84
2018-02-14T02:31:42.438Z,1037.82
2018-02-14T02:32:42.421Z,1037.83
2018-02-14T02:33:42.403Z,1037.83
2018-02-14T02:34:42.387Z,1037.81
2018-02-14T02:35:42.365Z,1037.84
2018-02-14T02:36:42.347Z,1037.79
2018-02-14T02:37:42.328Z,1037.81
2018-02-14T02:38:42.312Z,1037.8
2018-02-14T02:39:42.290Z,1037.8
2018-02-14T02:40:42.273Z,1037.82
2018-02-14T02:41:42.255Z,1037.8
2018-02-14T02:42:42.234Z,1037.82
2018-02-14T02:43:42.217Z,1037.82
2018-02-14T02:44:42.201Z,1037.82
2018-02-14T02:45:42.180Z,1037.84
2018-02-14T02:46:42.160Z,1037.88
2018-02-14T02:47:42.142Z,1037.87
2018-02-14T02:48:42.124Z,1037.89
2018-02-14T02:49:42.111Z,1037.85
2018-02-14T02:50:42.088Z,1037.9
2018-02-14T02:51:42.068Z,1037.87
2018-02-14T02:52:42.050Z,1037.91
2018-02-14T02:53:42.031Z,1037.9
2018-02-14T02:54:42.012Z,1037.87
2018-02-14T02:55:41.994Z,1037.88
2018-02-14T02:56:41.979Z,1037.88
2018-02-14T02:57:41.956Z,1037.91
2018-02-14T02:58:41.940Z,1037.87
2018-02-14T02:59:41.919Z,1037.92
2018-02-14T03:00:41.902Z,1037.95
2018-02-14T03:01:41.883Z,1037.97
2018-02-14T03:02:41.864Z,1038.01
2018-02-14T03:03:41.846Z,1038.03
2018-02-14T03:04:41.826Z,1038.02
2018-02-14T03:05:41.808Z,1038.07
2018-02-14T03:06:41.790Z,1038.04
2018-02-14T03:07:41.771Z,1038.05
2018-02-14T03:08:41.751Z,1038.07
2018-02-14T03:09:41.733Z,1038.09
2018-02-14T03:10:41.716Z,1038.08
2018-02-14T03:11:41.696Z,1038.11
2018-02-14T03:12:41.679Z,1038.14
2018-02-14T03:13:41.659Z,1038.18
2018-02-14T03:14:41.640Z,1038.14
2018-02-14T03:15:41.627Z,1038.16
2018-02-14T03:16:41.604Z,1038.2
2018-02-14T03:17:41.585Z,1038.19
2018-02-14T03:18:41.567Z,1038.18
2018-02-14T03:19:41.548Z,1038.2
2018-02-14T03:20:41.529Z,1038.22
2018-02-14T03:21:41.514Z,1038.24
2018-02-14T03:22:41.491Z,1038.23
2018-02-14T03:23:41.473Z,1038.27
2018-02-14T03:24:41.455Z,1038.29
2018-02-14T03:25:41.437Z,1038.27
2018-02-14T03:26:41.416Z,1038.29
2018-02-14T03:27:41.402Z,1038.28
2018-02-14T03:28:41.379Z,1038.3
2018-02-14T03:29:41.362Z,1038.31
2018-02-14T03:30:41.343Z,1038.31
2018-02-14T03:31:41.323Z,1038.34
2018-02-14T03:32:41.305Z,1038.35
2018-02-14T03:33:41.285Z,1038.37
2018-02-14T03:34:41.267Z,1038.36
2018-02-14T03:35:41.250Z,1038.38
2018-02-14T03:36:41.231Z,1038.38
2018-02-14T03:37:41.211Z,1038.38
2018-02-14T03:38:41.192Z,1038.41
2018-02-14T03:39:41.174Z,1038.42
2018-02-14T03:40:41.157Z,1038.43
2018-02-14T03:41:41.136Z,1038.46
2018-02-14T03:42:41.118Z,1038.47
2018-02-14T03:43:41.099Z,1038.46
2018-02-14T03:44:41.081Z,1038.49
2018-02-14T03:45:41.061Z,1038.48
2018-02-14T03:46:41.044Z,1038.47
2018-02-14T03:47:41.026Z,1038.46
2018-02-14T03:48:41.006Z,1038.48
2018-02-14T03:49:40.986Z,1038.49
2018-02-14T03:50:40.968Z,1038.47
2018-02-14T03:51:40.949Z,1038.52
2018-02-14T03:52:40.933Z,1038.48
2018-02-14T03:53:40.912Z,1038.53
2018-02-14T03:54:40.893Z,1038.51
2018-02-14T03:55:40.877Z,1038.5
2018-02-14T03:56:40.855Z,1038.53
2018-02-14T03:57:40.838Z,1038.5
2018-02-14T03:58:40.819Z,1038.5
2018-02-14T03:59:40.800Z,1038.52
2018-02-14T04:00:40.780Z,1038.47
2018-02-14T04:01:40.762Z,1038.5
2018-02-14T04:02:40.748Z,1038.54
2018-02-14T04:03:40.725Z,1038.53
2018-02-14T04:04:40.705Z,1038.53
2018-02-14T04:05:40.687Z,1038.54
2018-02-14T04:06:40.668Z,1038.57
2018-02-14T04:07:40.649Z,1038.59
2018-02-14T04:08:40.632Z,1038.58
2018-02-14T04:09:40.612Z,1038.63
2018-02-14T04:10:40.624Z,1038.6
2018-02-14T04:11:40.575Z,1038.67
2018-02-14T04:12:40.557Z,1038.69
2018-02-14T04:13:40.537Z,1038.71
2018-02-14T04:14:40.517Z,1038.74
2018-02-14T04:15:40.499Z,1038.77
2018-02-14T04:16:40.481Z,1038.8
2018-02-14T04:17:40.462Z,1038.78
2018-02-14T04:18:40.443Z,1038.77
2018-02-14T04:19:40.425Z,1038.8
2018-02-14T04:20:40.406Z,1038.75
2018-02-14T04:21:40.387Z,1038.79
2018-02-14T04:22:40.368Z,1038.8
2018-02-14T04:23:40.349Z,1038.83
2018-02-14T04:24:40.331Z,1038.83
2018-02-14T04:25:40.311Z,1038.85
2018-02-14T04:26:40.293Z,1038.85
2018-02-14T04:27:40.275Z,1038.85
2018-02-14T04:28:40.255Z,1038.84
2018-02-14T04:29:40.238Z,1038.89
2018-02-14T04:30:40.221Z,1038.87
2018-02-14T04:31:40.200Z,1038.9
2018-02-14T04:32:40.181Z,1038.9
2018-02-14T04:33:40.161Z,1038.9
2018-02-14T04:34:40.143Z,1038.94
2018-02-14T04:35:40.124Z,1038.9
2018-02-14T04:36:40.106Z,1038.9
2018-02-14T04:37:40.086Z,1038.94
2018-02-14T04:38:40.069Z,1038.89
2018-02-14T04:39:40.051Z,1038.95
2018-02-14T04:40:40.031Z,1038.94
2018-02-14T04:41:40.013Z,1038.97
2018-02-14T04:42:39.992Z,1038.99
2018-02-14T04:43:39.973Z,1038.99
2018-02-14T04:44:39.959Z,1038.97
2018-02-14T04:45:39.937Z,1039
2018-02-14T04:46:39.918Z,1038.98
2018-02-14T04:47:39.900Z,1038.98
2018-02-14T04:48:39.882Z,1038.98
2018-02-14T04:49:39.862Z,1038.98
2018-02-14T04:50:39.846Z,1038.99
2018-02-14T04:51:39.824Z,1039.01
2018-02-14T04:52:39.806Z,1038.97
2018-02-14T04:53:39.788Z,1038.98
2018-02-14T04:54:39.768Z,1039.01
2018-02-14T04:55:39.750Z,1039.03
2018-02-14T04:56:39.731Z,1038.99
2018-02-14T04:57:39.711Z,1038.99
2018-02-14T04:58:39.693Z,1039.07
2018-02-14T04:59:39.676Z,1039.04
2018-02-14T05:00:39.667Z,1039.09
2018-02-14T05:01:39.636Z,1039.08
2018-02-14T05:02:39.619Z,1039.07
2018-02-14T05:03:39.600Z,1039.1
2018-02-14T05:04:39.582Z,1039.09
2018-02-14T05:05:39.562Z,1039.17
2018-02-14T05:06:39.543Z,1039.17
2018-02-14T05:07:39.525Z,1039.16
2018-02-14T05:08:39.506Z,1039.15
2018-02-14T05:09:39.487Z,1039.13
2018-02-14T05:10:39.470Z,1039.19
2018-02-14T05:11:39.450Z,1039.21
2018-02-14T05:12:39.430Z,1039.19
2018-02-14T05:13:39.426Z,1039.22
2018-02-14T05:14:39.393Z,1039.21
2018-02-14T05:15:39.375Z,1039.24
2018-02-14T05:16:39.356Z,1039.27
2018-02-14T05:17:39.337Z,1039.28
2018-02-14T05:18:39.321Z,1039.28
2018-02-14T05:19:39.299Z,1039.34
2018-02-14T05:20:39.280Z,1039.38
2018-02-14T05:21:39.261Z,1039.36
2018-02-14T05:22:39.242Z,1039.4
2018-02-14T05:23:39.223Z,1039.39
2018-02-14T05:24:39.206Z,1039.43
2018-02-14T05:25:39.186Z,1039.4
2018-02-14T05:26:39.168Z,1039.4
2018-02-14T05:27:39.148Z,1039.38
2018-02-14T05:28:39.129Z,1039.42
2018-02-14T05:29:39.111Z,1039.4
2018-02-14T05:30:39.092Z,1039.38
2018-02-14T05:31:39.073Z,1039.39
2018-02-14T05:32:39.054Z,1039.45
2018-02-14T05:33:39.036Z,1039.45
2018-02-14T05:34:39.018Z,1039.43
2018-02-14T05:35:38.998Z,1039.4
2018-02-14T05:36:38.980Z,1039.45
2018-02-14T05:37:38.960Z,1039.51
2018-02-14T05:38:38.942Z,1039.5
2018-02-14T05:39:38.926Z,1039.51
2018-02-14T05:40:38.905Z,1039.52
2018-02-14T05:41:38.885Z,1039.52
2018-02-14T05:42:38.866Z,1039.54
2018-02-14T05:43:38.847Z,1039.55
2018-02-14T05:44:38.829Z,1039.54
2018-02-14T05:45:38.809Z,1039.52
2018-02-14T05:46:38.790Z,1039.52
2018-02-14T05:47:38.773Z,1039.56
2018-02-14T05:48:38.753Z,1039.56
2018-02-14T05:49:38.734Z,1039.55
2018-02-14T05:50:38.716Z,1039.56
2018-02-14T05:51:38.697Z,1039.6
2018-02-14T05:52:38.677Z,1039.59
2018-02-14T05:53:38.660Z,1039.64
2018-02-14T05:54:38.641Z,1039.65
2018-02-14T05:55:38.623Z,1039.72
2018-02-14T05:56:38.602Z,1039.7
2018-02-14T05:57:38.585Z,1039.7
2018-02-14T05:58:38.565Z,1039.77
2018-02-14T05:59:38.546Z,1039.76
2018-02-14T06:00:38.528Z,1039.77
2018-02-14T06:01:38.508Z,1039.82
2018-02-14T06:02:38.491Z,1039.84
2018-02-14T06:03:38.470Z,1039.82
2018-02-14T06:04:38.452Z,1039.85
2018-02-14T06:05:38.433Z,1039.85
2018-02-14T06:06:38.416Z,1039.87
2018-02-14T06:07:38.396Z,1039.89
2018-02-14T06:08:38.378Z,1039.85
2018-02-14T06:09:38.360Z,1039.91
2018-02-14T06:10:38.341Z,1039.91
2018-02-14T06:11:38.321Z,1039.96
2018-02-14T06:12:38.302Z,1039.94
2018-02-14T06:13:38.283Z,1039.95
2018-02-14T06:14:38.287Z,1039.94
2018-02-14T06:15:38.244Z,1039.94
2018-02-14T06:16:38.227Z,1039.95
2018-02-14T06:17:38.207Z,1039.97
2018-02-14T06:18:38.189Z,1039.99
2018-02-14T06:20:38.152Z,1039.9
2018-02-14T06:21:38.140Z,1039.93
2018-02-14T06:22:38.115Z,1039.94
2018-02-14T06:23:38.099Z,1039.93
2018-02-14T06:24:38.077Z,1039.95
2018-02-14T06:25:38.057Z,1039.88
2018-02-14T06:26:38.040Z,1039.87
2018-02-14T06:27:38.021Z,1039.85
2018-02-14T06:28:38.002Z,1039.85
2018-02-14T06:29:37.983Z,1039.85
2018-02-14T06:30:37.964Z,1039.85
2018-02-14T06:31:37.945Z,1039.81
2018-02-14T06:32:37.927Z,1039.8
2018-02-14T06:33:37.908Z,1039.79
2018-02-14T06:34:37.890Z,1039.79
2018-02-14T06:35:37.871Z,1039.75
2018-02-14T06:36:37.852Z,1039.77
2018-02-14T06:37:37.833Z,1039.73
2018-02-14T06:38:37.815Z,1039.75
2018-02-14T06:39:37.796Z,1039.75
2018-02-14T06:40:37.778Z,1039.74
2018-02-14T06:41:37.758Z,1039.73
2018-02-14T06:42:37.740Z,1039.73
2018-02-14T06:43:37.721Z,1039.72
2018-02-14T06:44:37.702Z,1039.69
2018-02-14T06:45:37.685Z,1039.64
2018-02-14T06:46:37.665Z,1039.61
2018-02-14T06:47:37.647Z,1039.59
2018-02-14T06:48:37.629Z,1039.59
2018-02-14T06:49:37.610Z,1039.58
2018-02-14T06:50:37.592Z,1039.54
2018-02-14T06:51:37.573Z,1039.55
2018-02-14T06:52:37.553Z,1039.54
2018-02-14T06:53:37.537Z,1039.54
2018-02-14T06:54:37.518Z,1039.5
2018-02-14T06:55:37.498Z,1039.46
2018-02-14T06:56:37.482Z,1039.36
2018-02-14T06:57:37.463Z,1039.21
2018-02-14T06:58:37.444Z,1039.09
2018-02-14T06:59:37.425Z,1038.97
2018-02-14T07:00:37.407Z,1038.87
2018-02-14T07:01:37.390Z,1038.76
2018-02-14T07:02:37.371Z,1038.62
2018-02-14T07:03:37.353Z,1038.44
2018-02-14T07:04:37.374Z,1038.32
2018-02-14T07:05:37.317Z,1038.15
2018-02-14T07:06:37.299Z,1038.08
2018-02-14T07:07:37.282Z,1037.93
2018-02-14T07:08:37.264Z,1037.79
2018-02-14T07:09:37.245Z,1037.7
2018-02-14T07:10:37.228Z,1037.57
2018-02-14T07:11:37.212Z,1037.46
2018-02-14T07:12:37.194Z,1037.34
2018-02-14T07:13:37.176Z,1037.26
2018-02-14T07:14:37.159Z,1037.12
2018-02-14T07:15:37.142Z,1037.02
2018-02-14T07:16:37.126Z,1036.95
2018-02-14T07:17:37.108Z,1036.84
2018-02-14T07:18:37.095Z,1036.77
2018-02-14T07:19:37.076Z,1036.72
2018-02-14T07:20:37.059Z,1036.64
2018-02-14T07:21:37.043Z,1036.57
2018-02-14T07:22:37.033Z,1036.52
2018-02-14T07:23:37.011Z,1036.44
2018-02-14T07:24:36.992Z,1036.36
2018-02-14T07:25:36.987Z,1036.32
2018-02-14T07:26:36.962Z,1036.29
2018-02-14T07:27:36.944Z,1036.25
2018-02-14T07:28:36.929Z,1036.22
2018-02-14T07:29:36.916Z,1036.2
2018-02-14T07:30:36.899Z,1036.17
2018-02-14T07:31:36.885Z,1036.15
2018-02-14T07:32:36.870Z,1036.13
2018-02-14T07:33:36.869Z,1036.15
2018-02-14T07:34:36.837Z,1036.11
2018-02-14T07:35:36.821Z,1036.27
2018-02-14T07:36:36.805Z,1036.39
2018-02-14T07:37:36.790Z,1036.57
2018-02-14T07:38:36.775Z,1036.65
2018-02-14T07:39:36.761Z,1036.82
2018-02-14T07:40:36.744Z,1036.85
2018-02-14T07:41:36.730Z,1036.81
2018-02-14T07:42:36.723Z,1036.71
2018-02-14T07:43:36.702Z,1036.71
2018-02-14T07:44:36.685Z,1036.81
2018-02-14T07:45:36.670Z,1036.83
2018-02-14T07:46:36.654Z,1036.82
2018-02-14T07:47:36.638Z,1036.89
2018-02-14T07:48:36.635Z,1036.97
2018-02-14T07:49:36.608Z,1036.97
2018-02-14T07:50:36.593Z,1037.07
2018-02-14T07:51:36.579Z,1037.04
2018-02-14T07:52:36.563Z,1037.1
2018-02-14T07:53:36.547Z,1037.13
2018-02-14T07:54:36.533Z,1037.19
2018-02-14T07:55:36.517Z,1037.22
2018-02-14T07:56:36.518Z,1037.23
2018-02-14T07:57:36.530Z,1037.2
2018-02-14T07:58:36.472Z,1037.25
2018-02-14T07:59:36.457Z,1037.25
2018-02-14T08:00:36.451Z,1037.26
2018-02-14T08:01:36.426Z,1037.28
2018-02-14T08:02:36.412Z,1037.26
2018-02-14T08:03:36.396Z,1037.28
2018-02-14T08:04:36.379Z,1037.33
2018-02-14T08:05:36.365Z,1037.32
2018-02-14T08:06:36.350Z,1037.33
2018-02-14T08:07:36.351Z,1037.38
2018-02-14T08:08:36.317Z,1037.37
2018-02-14T08:09:36.304Z,1037.38
2018-02-14T08:10:36.290Z,1037.42
2018-02-14T08:11:36.275Z,1037.45
2018-02-14T08:12:36.258Z,1037.44
2018-02-14T08:13:36.241Z,1037.44
2018-02-14T08:14:36.266Z,1037.49
2018-02-14T08:15:36.209Z,1037.48
2018-02-14T08:16:36.195Z,1037.52
2018-02-14T08:17:36.179Z,1037.52
2018-02-14T08:18:36.162Z,1037.53
2018-02-14T08:19:36.146Z,1037.56
2018-02-14T08:20:36.131Z,1037.62
2018-02-14T08:21:36.119Z,1037.61
2018-02-14T08:22:36.106Z,1037.59
2018-02-14T08:23:36.086Z,1037.63
2018-02-14T08:24:36.069Z,1037.62
2018-02-14T08:25:36.058Z,1037.61
2018-02-14T08:26:36.039Z,1037.6
2018-02-14T08:27:36.022Z,1037.61
2018-02-14T08:28:36.007Z,1037.61
2018-02-14T08:29:35.992Z,1037.58
2018-02-14T08:30:35.975Z,1037.58
2018-02-14T08:31:35.967Z,1037.61
2018-02-14T08:32:35.945Z,1037.58
2018-02-14T08:33:35.930Z,1037.57
2018-02-14T08:34:35.913Z,1037.58
2018-02-14T08:35:35.899Z,1037.56
2018-02-14T08:36:35.883Z,1037.57
2018-02-14T08:37:35.870Z,1037.59
2018-02-14T08:38:35.851Z,1037.58
2018-02-14T08:39:35.837Z,1037.59
2018-02-14T08:40:35.820Z,1037.58
2018-02-14T08:41:35.804Z,1037.57
2018-02-14T08:42:35.789Z,1037.57
2018-02-14T08:43:35.775Z,1037.55
2018-02-14T08:44:35.759Z,1037.53
2018-02-14T08:45:35.750Z,1037.51
2018-02-14T08:46:35.727Z,1037.5
2018-02-14T08:47:35.713Z,1037.46
2018-02-14T08:48:35.696Z,1037.45
2018-02-14T08:49:35.682Z,1037.45
2018-02-14T08:50:35.667Z,1037.42
2018-02-14T08:51:35.651Z,1037.4
2018-02-14T08:52:35.640Z,1037.39
2018-02-14T08:53:35.620Z,1037.37
2018-02-14T08:54:35.607Z,1037.42
2018-02-14T08:55:35.591Z,1037.35
2018-02-14T08:56:35.576Z,1037.35
2018-02-14T08:57:35.560Z,1037.38
2018-02-14T08:58:35.544Z,1037.36
2018-02-14T08:59:35.529Z,1037.34
2018-02-14T09:00:35.514Z,1037.32
2018-02-14T09:01:35.500Z,1037.34
2018-02-14T09:02:35.498Z,1037.29
2018-02-14T09:03:35.469Z,1037.3
2018-02-14T09:04:35.454Z,1037.34
2018-02-14T09:05:35.439Z,1037.33
2018-02-14T09:06:35.424Z,1037.32
2018-02-14T09:07:35.410Z,1037.36
2018-02-14T09:08:35.393Z,1037.4
2018-02-14T09:09:35.379Z,1037.44
2018-02-14T09:10:35.364Z,1037.44
2018-02-14T09:11:35.376Z,1037.41
2018-02-14T09:12:35.334Z,1037.39
2018-02-14T09:14:35.303Z,1037.43
2018-02-14T09:15:35.291Z,1037.39
2018-02-14T09:16:35.274Z,1037.41
2018-02-14T09:17:35.258Z,1037.41
2018-02-14T09:18:35.243Z,1037.42
2018-02-14T09:19:35.227Z,1037.39
2018-02-14T09:20:35.214Z,1037.37
2018-02-14T09:21:35.198Z,1037.39
2018-02-14T09:22:35.182Z,1037.34
2018-02-14T09:23:35.169Z,1037.29
2018-02-14T09:24:35.153Z,1037.29
2018-02-14T09:25:35.138Z,1037.29
2018-02-14T09:26:35.125Z,1037.3
2018-02-14T09:27:35.110Z,1037.27
2018-02-14T09:28:35.094Z,1037.26
2018-02-14T09:29:35.079Z,1037.23
2018-02-14T09:30:35.064Z,1037.25
2018-02-14T09:31:35.051Z,1037.3
2018-02-14T09:32:35.036Z,1037.25
2018-02-14T09:33:35.022Z,1037.22
2018-02-14T09:34:35.006Z,1037.18
2018-02-14T09:35:34.991Z,1037.18
2018-02-14T09:36:34.993Z,1037.14
2018-02-14T09:37:34.963Z,1037.13
2018-02-14T09:38:34.947Z,1037.08
2018-02-14T09:39:34.932Z,1037.1
2018-02-14T09:40:34.920Z,1037.07
2018-02-14T09:41:34.903Z,1037.09
2018-02-14T09:42:34.888Z,1037.06
2018-02-14T09:43:34.874Z,1037.05
2018-02-14T09:44:34.863Z,1037.06
2018-02-14T09:45:34.846Z,1037.05
2018-02-14T09:46:34.830Z,1037.07
2018-02-14T09:47:34.817Z,1037.11
2018-02-14T09:48:34.802Z,1037.1
2018-02-14T09:49:34.789Z,1037.12
2018-02-14T09:50:34.784Z,1037.14
2018-02-14T09:51:34.777Z,1037.14
2018-02-14T09:52:34.747Z,1037.14
2018-02-14T09:53:34.730Z,1037.13
2018-02-14T09:54:34.717Z,1037.16
2018-02-14T09:55:34.701Z,1037.16
2018-02-14T09:56:34.688Z,1037.13
2018-02-14T09:57:34.675Z,1037.14
2018-02-14T09:58:34.658Z,1037.16
2018-02-14T09:59:34.644Z,1037.14
2018-02-14T10:00:34.631Z,1037.14
2018-02-14T10:01:34.616Z,1037.2
2018-02-14T10:02:34.613Z,1037.2
2018-02-14T10:03:34.592Z,1037.18
2018-02-14T10:04:34.574Z,1037.16
2018-02-14T10:05:34.560Z,1037.19
2018-02-14T10:06:34.574Z,1037.17
2018-02-14T10:07:34.533Z,1037.15
2018-02-14T10:08:34.521Z,1037.17
2018-02-14T10:09:34.503Z,1037.16
2018-02-14T10:10:34.490Z,1037.14
2018-02-14T10:11:34.476Z,1037.16
2018-02-14T10:12:34.462Z,1037.16
2018-02-14T10:13:34.447Z,1037.17
2018-02-14T10:14:34.432Z,1037.13
2018-02-14T10:15:34.418Z,1037.13
2018-02-14T10:16:34.404Z,1037.16
2018-02-14T10:17:34.390Z,1037.15
2018-02-14T10:18:34.376Z,1037.13
2018-02-14T10:19:34.361Z,1037.15
2018-02-14T10:20:34.349Z,1037.11
2018-02-14T10:21:34.334Z,1037.12
2018-02-14T10:22:34.320Z,1037.09
2018-02-14T10:23:34.305Z,1037.08
2018-02-14T10:24:34.291Z,1037.09
2018-02-14T10:25:34.280Z,1037.12
2018-02-14T10:26:34.263Z,1037.06
2018-02-14T10:27:34.250Z,1037.02
2018-02-14T10:28:34.236Z,1037.03
2018-02-14T10:29:34.222Z,1037.02
2018-02-14T10:30:34.207Z,1037.02
2018-02-14T10:31:34.194Z,1036.98
2018-02-14T10:32:34.184Z,1036.96
2018-02-14T10:33:34.167Z,1036.96
2018-02-14T10:34:34.152Z,1036.93
2018-02-14T10:35:34.142Z,1036.89
2018-02-14T10:36:34.125Z,1036.84
2018-02-14T10:37:34.110Z,1036.87
2018-02-14T10:38:34.097Z,1036.81
2018-02-14T10:39:34.082Z,1036.79
2018-02-14T10:40:34.070Z,1036.72
2018-02-14T10:41:34.055Z,1036.71
2018-02-14T10:42:34.042Z,1036.7
2018-02-14T10:43:34.030Z,1036.68
2018-02-14T10:44:34.015Z,1036.65
2018-02-14T10:45:34.000Z,1036.64
2018-02-14T10:46:33.986Z,1036.63
2018-02-14T10:47:33.972Z,1036.59
2018-02-14T10:48:33.958Z,1036.62
2018-02-14T10:49:33.946Z,1036.58
2018-02-14T10:50:33.934Z,1036.57
2018-02-14T10:51:33.918Z,1036.54
2018-02-14T10:52:33.904Z,1036.54
2018-02-14T10:53:33.896Z,1036.56
2018-02-14T10:54:33.877Z,1036.55
2018-02-14T10:55:33.865Z,1036.53
2018-02-14T10:56:33.851Z,1036.51
2018-02-14T10:57:33.838Z,1036.52
2018-02-14T10:58:33.824Z,1036.51
2018-02-14T10:59:33.827Z,1036.5
2018-02-14T11:00:33.798Z,1036.5
2018-02-14T11:01:33.784Z,1036.45
2018-02-14T11:02:33.771Z,1036.44
2018-02-14T11:03:33.758Z,1036.45
2018-02-14T11:04:33.749Z,1036.43
2018-02-14T11:05:33.732Z,1036.36
2018-02-14T11:06:33.718Z,1036.35
2018-02-14T11:07:33.712Z,1036.32
2018-02-14T11:08:33.707Z,1036.29
2018-02-14T11:09:33.679Z,1036.28
2018-02-14T11:10:33.666Z,1036.26
2018-02-14T11:11:33.653Z,1036.24
2018-02-14T11:12:33.640Z,1036.26
2018-02-14T11:13:33.627Z,1036.19
2018-02-14T11:14:33.613Z,1036.21
2018-02-14T11:15:33.600Z,1036.24
2018-02-14T11:16:33.588Z,1036.21
2018-02-14T11:17:33.573Z,1036.21
2018-02-14T11:18:33.562Z,1036.24
2018-02-14T11:19:33.549Z,1036.2
2018-02-14T11:20:33.546Z,1036.15
2018-02-14T11:21:33.523Z,1036.2
2018-02-14T11:22:33.550Z,1036.04
2018-02-14T11:23:33.496Z,1036.09
2018-02-14T11:24:33.485Z,1036.04
2018-02-14T11:25:33.488Z,1036.03
2018-02-14T11:26:33.468Z,1036.01
2018-02-14T11:27:33.447Z,1036.03
2018-02-14T11:28:33.433Z,1036.04
2018-02-14T11:29:33.421Z,1035.98
2018-02-14T11:30:33.407Z,1036.06
2018-02-14T11:31:33.644Z,1036.02
2018-02-14T11:32:33.381Z,1036
2018-02-14T11:33:33.370Z,1036.05
2018-02-14T11:34:33.357Z,1036.03
2018-02-14T11:35:33.345Z,1036.05
2018-02-14T11:36:33.331Z,1036.05
2018-02-14T11:37:33.319Z,1036.08
2018-02-14T11:38:33.305Z,1036.08
2018-02-14T11:39:33.292Z,1036.05
2018-02-14T11:40:33.280Z,1036.04
2018-02-14T11:41:33.273Z,1036.08
2018-02-14T11:42:33.266Z,1036.04
2018-02-14T11:43:33.241Z,1036.06
2018-02-14T11:44:33.230Z,1036.07
2018-02-14T11:45:33.218Z,1036.02
2018-02-14T11:46:33.205Z,1036.07
2018-02-14T11:47:33.191Z,1036.03
2018-02-14T11:48:33.178Z,1036.01
2018-02-14T11:49:33.167Z,1035.98
2018-02-14T11:50:33.153Z,1035.96
2018-02-14T11:51:33.141Z,1035.96
2018-02-14T11:52:33.128Z,1035.93
2018-02-14T11:53:33.116Z,1035.9
2018-02-14T11:54:33.119Z,1035.82
2018-02-14T11:55:33.125Z,1035.68
2018-02-14T11:56:33.078Z,1035.7
2018-02-14T11:57:33.065Z,1035.68
2018-02-14T11:58:33.054Z,1035.62
2018-02-14T11:59:33.040Z,1035.6
2018-02-14T12:00:33.028Z,1035.56
2018-02-14T12:01:33.014Z,1035.46
2018-02-14T12:02:33.001Z,1035.34
2018-02-14T12:03:32.990Z,1035.21
2018-02-14T12:04:32.979Z,1035.06
2018-02-14T12:05:32.980Z,1034.97
2018-02-14T12:06:32.954Z,1034.85
2018-02-14T12:07:32.944Z,1034.74
2018-02-14T12:08:32.930Z,1034.53
2018-02-14T12:09:32.917Z,1034.31